05TS weather

Dew Drop Airport
Justin, Texas, United States

Public forecast

Using degrees Fahrenheit for public forecast. Weather courtesy of forecast.io.

METAR (pilot weather report)

Closest report is Fort Worth Alliance Airport, 8.7 nm (16.2 km) SSE. Retrieved 2019/07/20 14:53 UTC (24 minutes ago):

KAFW 201453Z 18014KT 10SM FEW300 29/21 A2996 RMK AO2 SLP127 T02940211 51009

TAF (pilot weather forecast)

Closest forecast is Fort Worth Alliance Airport, 8.7 nm (16.2 km) SSE. Retrieved 2019/07/20 12:27 UTC (3 hours ago):

TAF KAFW 201125Z 2012/2112 17015KT P6SM FEW250